BGBA weather

Boggabilla Fuel Depot Landing Site
Goondiwindi, New South Wales, Australia

Public forecast

Using degrees Celsius for public forecast. Weather courtesy of forecast.io.

METAR (pilot weather report)

Closest report is Moree Airport, 59.7 nm (110.6 km) SSW. Retrieved 2019/05/25 22:00 UTC (23 minutes ago):

YMOR 252200Z AUTO 07007KT 9999 // NCD 13/05 Q1018

TAF (pilot weather forecast)

Closest forecast is RAAF Base Amberley, 137.8 nm (255.2 km) ENE. Retrieved 2019/05/25 18:00 UTC (4 hours ago):

TAF YAMB 251715Z 2518/2612 30002KT CAVOK FM252300 28007KT CAVOK FM261000 VRB03KT CAVOK PROB40 2518/2522 0500 FG